Time;durP1;ratioP1;P1;durP2;ratioP2;P2;SDS_P1;SDS_P2;PMS_P1;PMS_P2;Temp;Humidity;BMP_temperature;BMP_pressure;BME280_temperature;BME280_humidity;BME280_pressure;Samples;Min_cycle;Max_cycle;Signal;HPM_P1;HPM_P2
2022/03/10 00:00:25;;;;;;;1.30;1.20;;;-3.10;1.40;;;-2.58;100.00;96113.94;646751;212;31581;-75
2022/03/10 00:03:06;;;;;;;1.50;1.37;;;-3.10;1.40;;;-2.64;100.00;96119.84;648192;212;31557;-76
2022/03/10 00:05:48;;;;;;;1.12;1.02;;;-3.20;1.40;;;-2.64;100.00;96117.14;646834;212;31641;-74
2022/03/10 00:08:32;;;;;;;1.27;1.15;;;-3.20;1.40;;;-2.66;100.00;96116.98;647025;216;31632;-75
2022/03/10 00:11:13;;;;;;;1.40;1.30;;;-3.10;1.40;;;-2.70;100.00;96119.45;647015;212;31766;-75
2022/03/10 00:13:55;;;;;;;1.67;1.58;;;-3.20;1.40;;;-2.71;100.00;96120.75;647356;216;32130;-76
2022/03/10 00:16:39;;;;;;;1.20;0.90;;;-3.30;1.40;;;-2.66;100.00;96127.72;647688;216;31593;-74
2022/03/10 00:19:27;;;;;;;3.37;1.67;;;-3.30;1.40;;;-2.64;100.00;96126.05;647123;216;31597;-76
2022/03/10 00:22:11;;;;;;;1.85;1.27;;;-3.30;1.40;;;-2.69;100.00;96126.35;647223;216;31545;-75
2022/03/10 00:24:50;;;;;;;2.90;2.10;;;-3.30;1.40;;;-2.75;100.00;96128.37;647982;216;31540;-75
2022/03/10 00:27:32;;;;;;;2.78;1.65;;;-3.30;1.40;;;-2.70;100.00;96131.70;620186;226;31911;-77
2022/03/10 00:30:14;;;;;;;2.20;1.73;;;-3.30;1.40;;;-2.66;100.00;96135.61;646941;212;31517;-75
2022/03/10 00:32:56;;;;;;;1.90;0.98;;;-3.30;1.40;;;-2.64;100.00;96135.89;646936;216;31617;-75
2022/03/10 00:36:00;;;;;;;1.80;1.60;;;-3.20;1.40;;;-2.69;100.00;96136.25;642440;216;31587;-74
2022/03/10 00:38:47;;;;;;;2.10;1.20;;;-3.20;1.40;;;-2.78;100.00;96138.75;646819;216;32117;-75
2022/03/10 00:41:29;;;;;;;3.70;1.30;;;-3.40;1.40;;;-2.63;100.00;96136.30;647081;212;31606;-75
2022/03/10 00:44:12;;;;;;;1.30;1.20;;;-3.30;1.40;;;-2.62;100.00;96135.41;647408;216;31685;-76
2022/03/10 00:46:55;;;;;;;3.70;1.80;;;-3.40;1.40;;;-2.73;100.00;96134.86;647358;212;42178;-75
2022/03/10 00:49:36;;;;;;;2.90;1.37;;;-3.50;1.40;;;-2.88;100.00;96139.63;647609;216;31643;-75
2022/03/10 00:52:18;;;;;;;1.50;1.40;;;-3.60;1.40;;;-2.92;100.00;96140.33;648066;212;31569;-75
2022/03/10 00:55:07;;;;;;;1.90;1.12;;;-3.60;1.40;;;-2.92;100.00;96135.72;645547;212;31715;-75
2022/03/10 00:57:56;;;;;;;3.28;1.75;;;-3.60;1.40;;;-3.03;100.00;96135.38;645926;212;31553;-75
2022/03/10 01:00:38;;;;;;;3.97;1.75;;;-3.70;1.40;;;-2.97;100.00;96130.89;646426;216;31547;-76
2022/03/10 01:03:20;;;;;;;1.20;1.10;;;-3.80;1.40;;;-3.05;100.00;96142.16;648602;216;31621;-76
2022/03/10 01:06:01;;;;;;;3.45;1.27;;;-3.90;1.40;;;-3.12;100.00;96134.20;646850;216;31803;-76
2022/03/10 01:08:43;;;;;;;4.33;1.60;;;-3.90;1.40;;;-3.09;100.00;96135.13;652245;212;27760;-76
2022/03/10 01:11:26;;;;;;;1.37;1.27;;;-3.70;1.40;;;-3.04;100.00;96137.35;647446;216;31489;-76
2022/03/10 01:14:07;;;;;;;3.08;1.90;;;-3.70;1.40;;;-3.01;100.00;96136.27;619014;222;32234;-76
2022/03/10 01:16:52;;;;;;;3.72;1.02;;;-3.70;1.40;;;-2.99;100.00;96136.45;647228;216;31583;-76
2022/03/10 01:19:34;;;;;;;2.20;1.00;;;-3.50;1.40;;;-2.91;100.00;96135.72;647742;216;32675;-75
2022/03/10 01:22:16;;;;;;;1.02;1.00;;;-3.50;1.40;;;-2.98;100.00;96132.99;620104;226;42654;-75
2022/03/10 01:24:57;;;;;;;2.60;2.10;;;-3.60;1.40;;;-3.01;100.00;96126.98;646841;212;31492;-76
2022/03/10 01:27:39;;;;;;;1.20;1.10;;;-3.50;1.40;;;-3.04;100.00;96125.55;646968;216;42130;-75
2022/03/10 01:30:21;;;;;;;1.15;1.05;;;-3.60;1.40;;;-3.11;100.00;96124.92;647295;216;31532;-76
2022/03/10 01:35:55;;;;;;;2.28;0.88;;;-3.60;1.40;;;-3.13;100.00;96122.95;647957;216;31624;-76
2022/03/10 01:38:39;;;;;;;1.90;1.20;;;-3.60;1.40;;;-3.06;100.00;96119.57;648044;216;31968;-75
2022/03/10 01:41:19;;;;;;;2.50;0.88;;;-3.50;1.40;;;-3.07;100.00;96125.05;647189;216;31621;-75
2022/03/10 01:44:03;;;;;;;2.45;0.95;;;-3.50;1.40;;;-3.07;100.00;96116.86;646794;216;31499;-75
2022/03/10 01:46:51;;;;;;;2.58;0.98;;;-3.50;1.40;;;-3.07;100.00;96116.39;641129;217;31574;-73
2022/03/10 01:49:35;;;;;;;1.30;0.70;;;-3.60;1.40;;;-3.10;100.00;96114.48;619899;226;32262;-75
2022/03/10 01:52:16;;;;;;;1.17;1.05;;;-3.50;1.40;;;-3.08;100.00;96110.16;647656;216;31579;-77
2022/03/10 01:55:01;;;;;;;1.00;1.00;;;-3.40;1.40;;;-2.95;100.00;96108.00;618971;226;32223;-75
2022/03/10 01:57:43;;;;;;;1.10;1.10;;;-3.40;1.40;;;-2.84;100.00;96110.62;646935;212;31518;-75
2022/03/10 02:00:28;;;;;;;1.50;0.80;;;-3.20;1.40;;;-2.72;100.00;96102.48;645770;212;31523;-76
2022/03/10 02:03:11;;;;;;;0.90;0.88;;;-3.00;1.40;;;-2.66;100.00;96101.35;648559;216;31543;-76
2022/03/10 02:05:54;;;;;;;0.90;0.70;;;-2.90;1.40;;;-2.64;100.00;96105.33;647308;212;31583;-76
2022/03/10 02:11:28;;;;;;;1.20;1.10;;;-3.10;1.40;;;-2.79;100.00;96109.76;646353;212;31511;-75
2022/03/10 02:19:46;;;;;;;0.80;0.60;;;-3.10;1.40;;;-2.83;100.00;96113.58;647529;212;31536;-76
2022/03/10 02:22:28;;;;;;;2.60;0.90;;;-3.20;1.40;;;-2.77;100.00;96106.56;648264;212;31479;-75
2022/03/10 02:25:10;;;;;;;1.60;0.60;;;-3.10;1.40;;;-2.68;100.00;96110.55;621467;222;32591;-75
2022/03/10 02:27:53;;;;;;;0.90;0.90;;;-3.20;1.40;;;-2.70;100.00;96109.39;646402;216;31479;-75
2022/03/10 02:30:36;;;;;;;1.10;0.90;;;-3.20;1.40;;;-2.76;100.00;96111.15;645977;213;31911;-75
2022/03/10 02:35:51;;;;;;;1.17;0.88;;;-3.40;1.40;;;-2.75;100.00;96115.73;645500;212;32114;-75
2022/03/10 02:38:33;;;;;;;0.43;0.43;;;-3.10;1.40;;;-2.82;100.00;96114.89;652040;216;32217;-75
2022/03/10 02:41:17;;;;;;;1.40;1.05;;;-3.30;1.40;;;-3.01;100.00;96115.11;649668;212;31524;-75
2022/03/10 02:44:00;;;;;;;2.10;1.10;;;-3.70;1.40;;;-3.07;100.00;96114.70;648156;213;31556;-76
2022/03/10 02:46:42;;;;;;;1.30;1.20;;;-3.80;1.40;;;-3.17;100.00;96119.70;620895;225;32251;-76
2022/03/10 02:49:24;;;;;;;1.70;1.60;;;-3.90;1.40;;;-3.25;100.00;96128.39;648096;212;31533;-75
2022/03/10 02:52:07;;;;;;;0.68;0.65;;;-4.00;1.40;;;-3.40;100.00;96126.07;647387;216;31496;-72
2022/03/10 02:54:49;;;;;;;1.60;0.60;;;-4.10;1.40;;;-3.54;100.00;96126.19;617656;226;31913;-72
2022/03/10 02:57:37;;;;;;;2.72;1.42;;;-4.20;1.40;;;-3.55;100.00;96128.60;646953;212;31593;-76
2022/03/10 03:00:20;;;;;;;0.90;0.62;;;-4.30;1.40;;;-3.63;100.00;96133.30;648460;212;32051;-75
2022/03/10 03:03:07;;;;;;;0.70;0.60;;;-4.30;1.40;;;-3.69;100.00;96132.08;617772;226;32046;-72
2022/03/10 03:05:55;;;;;;;0.73;0.60;;;-4.40;1.40;;;-3.73;100.00;96132.93;646968;216;31536;-76
2022/03/10 03:08:38;;;;;;;1.58;1.05;;;-4.50;1.40;;;-3.79;100.00;96135.69;650217;212;31520;-76
2022/03/10 03:11:19;;;;;;;0.60;0.60;;;-4.40;1.40;;;-3.88;100.00;96138.49;650574;216;31737;-75
2022/03/10 03:14:04;;;;;;;2.10;0.80;;;-4.50;1.40;;;-3.91;100.00;96142.14;649082;216;31927;-75
2022/03/10 03:16:54;;;;;;;1.50;1.10;;;-4.60;1.40;;;-3.98;100.00;96148.12;640880;216;31688;-76
2022/03/10 03:19:34;;;;;;;1.12;0.85;;;-4.60;1.40;;;-4.03;100.00;96144.42;643905;217;31921;-75
2022/03/10 03:22:16;;;;;;;1.40;1.30;;;-4.60;1.40;;;-4.04;100.00;96146.89;617646;222;31889;-76
2022/03/10 03:24:58;;;;;;;1.00;0.80;;;-4.60;1.40;;;-4.12;100.00;96149.22;647714;212;32084;-75
2022/03/10 03:27:41;;;;;;;1.85;1.75;;;-4.80;1.40;;;-4.14;100.00;96148.55;648401;212;32053;-76
2022/03/10 03:30:25;;;;;;;1.85;1.17;;;-4.70;1.40;;;-4.23;100.00;96155.98;645666;216;32486;-74
2022/03/10 03:35:58;;;;;;;1.40;1.40;;;-4.80;1.40;;;-4.25;100.00;96165.63;649296;216;31557;-75
2022/03/10 03:38:39;;;;;;;1.20;0.70;;;-5.00;1.40;;;-4.32;100.00;96171.16;647676;212;42162;-75
2022/03/10 03:41:27;;;;;;;0.90;0.70;;;-5.00;1.40;;;-4.48;100.00;96177.48;647230;216;31685;-75
2022/03/10 03:44:09;;;;;;;1.20;0.73;;;-5.10;1.40;;;-4.56;100.00;96178.23;646281;216;32098;-73
2022/03/10 03:46:58;;;;;;;2.30;1.00;;;-5.10;1.40;;;-4.61;100.00;96177.47;646460;216;42143;-75
2022/03/10 03:49:45;;;;;;;1.50;1.10;;;-5.10;1.40;;;-4.64;100.00;96180.02;617135;225;42650;-74
2022/03/10 03:52:30;;;;;;;2.10;1.30;;;-5.10;1.40;;;-4.65;100.00;96180.53;648054;216;42712;-75
2022/03/10 03:58:00;;;;;;;4.00;0.70;;;-5.20;1.40;;;-4.77;100.00;96184.23;648686;216;31495;-75
2022/03/10 04:00:48;;;;;;;0.50;0.50;;;-5.30;1.40;;;-4.75;100.00;96186.17;647368;216;31524;-74
2022/03/10 04:03:33;;;;;;;0.75;0.62;;;-5.30;1.40;;;-4.83;100.00;96197.09;647001;216;42926;-75
2022/03/10 04:06:17;;;;;;;0.65;0.55;;;-5.40;1.40;;;-4.79;100.00;96192.66;647852;212;31572;-75
2022/03/10 04:09:05;;;;;;;0.90;0.60;;;-5.20;1.40;;;-4.73;100.00;96200.75;646777;216;31518;-75
2022/03/10 04:22:25;;;;;;;1.10;0.47;;;-5.10;1.40;;;-4.80;100.00;96209.62;649995;216;31646;-74
2022/03/10 04:25:08;;;;;;;1.60;0.80;;;-5.30;1.40;;;-4.89;100.00;96214.98;622589;222;31910;-75
2022/03/10 04:28:04;;;;;;;1.20;1.10;;;-5.30;1.40;;;-4.84;100.00;96218.67;620402;226;32520;-74
2022/03/10 04:35:56;;;;;;;1.58;0.80;;;-5.30;1.40;;;-4.83;100.00;96219.38;647384;216;31537;-75
2022/03/10 04:38:36;;;;;;;0.80;0.68;;;-5.20;1.40;;;-4.85;100.00;96215.55;647123;212;42376;-75
2022/03/10 04:41:24;;;;;;;0.70;0.60;;;-5.20;1.40;;;-4.82;100.00;96215.10;621280;226;31939;-75
2022/03/10 04:44:14;;;;;;;1.15;0.80;;;-5.20;1.40;;;-4.82;100.00;96212.97;627181;225;42510;-75
2022/03/10 04:47:02;;;;;;;0.90;0.90;;;-5.20;1.40;;;-4.78;100.00;96214.42;647239;212;31672;-75
2022/03/10 04:49:50;;;;;;;1.30;1.20;;;-5.10;1.40;;;-4.84;100.00;96212.77;620887;222;32004;-75
2022/03/10 04:52:42;;;;;;;0.50;0.50;;;-5.20;1.40;;;-4.86;100.00;96217.67;648004;212;31722;-76
2022/03/10 04:55:24;;;;;;;0.90;0.90;;;-5.30;1.40;;;-4.86;100.00;96221.48;645192;220;23476;-76
2022/03/10 04:58:11;;;;;;;3.30;1.30;;;-5.30;1.40;;;-4.80;100.00;96211.66;648161;212;31675;-75
2022/03/10 05:11:25;;;;;;;2.17;1.55;;;-5.30;1.40;;;-4.86;100.00;96209.84;646141;212;31649;-76
2022/03/10 05:14:07;;;;;;;0.90;0.70;;;-5.30;1.40;;;-4.86;100.00;96211.52;648230;212;31487;-76
2022/03/10 05:16:54;;;;;;;1.02;0.85;;;-5.30;1.40;;;-4.94;100.00;96208.45;648697;216;31516;-73
2022/03/10 05:19:38;;;;;;;1.87;0.70;;;-5.30;1.40;;;-4.98;100.00;96207.90;649973;216;31531;-75
2022/03/10 05:22:22;;;;;;;0.90;0.80;;;-5.40;1.40;;;-5.07;100.00;96204.85;648551;212;31536;-74
2022/03/10 05:35:56;;;;;;;0.70;0.70;;;-5.50;1.40;;;-5.11;100.00;96199.61;647251;216;31583;-75
2022/03/10 05:38:40;;;;;;;5.00;0.80;;;-5.40;1.40;;;-4.94;100.00;96193.47;647684;216;31534;-74
2022/03/10 05:41:22;;;;;;;1.90;0.90;;;-5.10;1.40;;;-4.75;100.00;96192.91;650399;216;31530;-74
2022/03/10 05:44:14;;;;;;;1.20;0.60;;;-4.90;1.40;;;-4.66;100.00;96198.20;650769;212;31544;-74
2022/03/10 05:46:56;;;;;;;1.00;0.80;;;-4.80;1.40;;;-4.49;100.00;96200.11;645588;216;31755;-75
2022/03/10 05:52:13;;;;;;;0.93;0.70;;;-4.40;1.40;;;-4.23;100.00;96209.91;647149;216;34505;-74
2022/03/10 05:54:54;;;;;;;0.80;0.55;;;-4.40;1.40;;;-4.21;100.00;96209.15;647285;216;31565;-75
2022/03/10 05:57:36;;;;;;;1.50;0.80;;;-4.50;1.40;;;-4.17;100.00;96204.38;619066;226;42482;-74
2022/03/10 06:00:39;;;;;;;1.98;1.10;;;-4.50;1.40;;;-4.14;100.00;96204.05;628156;222;42573;-76
2022/03/10 06:03:26;;;;;;;1.55;0.70;;;-4.50;1.40;;;-4.15;100.00;96203.63;629724;219;33135;-89
2022/03/10 06:06:15;;;;;;;1.35;1.00;;;-4.50;1.40;;;-4.03;100.00;96200.91;646121;212;31995;-74
2022/03/10 06:08:57;;;;;;;1.50;0.80;;;-4.40;1.40;;;-4.03;100.00;96207.04;620107;226;31901;-73
2022/03/10 06:11:43;;;;;;;0.80;0.80;;;-4.50;1.40;;;-3.90;100.00;96207.73;645828;216;31568;-73
2022/03/10 06:17:56;;;;;;;0.60;0.60;;;-4.20;1.40;;;-3.60;100.00;96216.62;646890;216;42104;-75
2022/03/10 06:20:40;;;;;;;1.58;1.35;;;-4.10;1.40;;;-3.49;100.00;96217.09;617807;226;31988;-75
2022/03/10 06:23:22;;;;;;;2.20;1.33;;;-3.80;1.40;;;-3.31;100.00;96212.77;617873;226;32062;-76
2022/03/10 06:26:09;;;;;;;2.72;1.50;;;-3.60;1.40;;;-3.15;100.00;96212.00;644980;216;31580;-74
2022/03/10 06:28:57;;;;;;;1.75;1.05;;;-3.50;1.40;;;-3.08;100.00;96214.73;648117;212;31576;-77
2022/03/10 06:31:39;;;;;;;1.33;1.20;;;-3.50;1.40;;;-3.00;100.00;96215.16;651441;212;31540;-77
2022/03/10 06:35:50;;;;;;;1.58;0.80;;;-3.50;1.40;;;-2.76;100.00;96219.96;621452;222;31931;-75
2022/03/10 06:38:36;;;;;;;2.10;1.70;;;-3.40;1.40;;;-2.67;100.00;96218.20;647638;216;31552;-76
2022/03/10 06:41:22;;;;;;;1.80;1.70;;;-3.30;1.40;;;-2.47;100.00;96211.78;645551;216;31694;-74
2022/03/10 06:44:10;;;;;;;1.05;0.95;;;-3.20;1.40;;;-2.35;100.00;96216.05;646142;216;32040;-76
2022/03/10 06:49:34;;;;;;;4.40;2.10;;;-3.00;1.40;;;-2.16;100.00;96215.09;647951;216;32113;-75
2022/03/10 06:52:19;;;;;;;1.40;1.20;;;-2.80;1.40;;;-1.91;100.00;96209.08;646888;212;31688;-74
2022/03/10 06:55:05;;;;;;;2.20;1.50;;;-2.60;1.40;;;-1.77;100.00;96203.28;647983;212;31965;-76
2022/03/10 06:57:46;;;;;;;1.80;1.70;;;-2.50;1.40;;;-1.61;100.00;96207.25;648265;216;31526;-77
2022/03/10 07:00:28;;;;;;;1.75;1.33;;;-2.30;1.40;;;-1.43;100.00;96202.43;648289;216;31604;-75
2022/03/10 07:03:10;;;;;;;1.50;1.20;;;-2.10;1.40;;;-1.20;100.00;96200.63;649460;212;31517;-75
2022/03/10 07:05:53;;;;;;;2.70;1.80;;;-2.00;1.40;;;-1.09;100.00;96201.03;620001;222;32514;-77
2022/03/10 07:08:37;;;;;;;6.22;1.42;;;-1.80;1.40;;;-0.95;100.00;96196.91;648053;216;31534;-78
2022/03/10 07:11:25;;;;;;;1.60;1.50;;;-1.70;1.40;;;-0.72;100.00;96192.88;645759;216;31762;-77
2022/03/10 07:14:12;;;;;;;1.90;1.23;;;-1.50;1.40;;;-0.46;100.00;96193.86;619194;226;31999;-78
2022/03/10 07:16:55;;;;;;;2.15;1.65;;;-1.20;1.40;;;-0.32;100.00;96191.86;622892;222;31853;-76
2022/03/10 07:19:37;;;;;;;2.67;2.00;;;-1.00;1.40;;;-0.14;100.00;96189.72;649478;216;31569;-78
2022/03/10 07:22:25;;;;;;;2.05;1.50;;;-0.90;1.40;;;0.07;100.00;96185.59;643864;216;31694;-74
2022/03/10 07:25:09;;;;;;;4.35;2.37;;;-0.70;1.40;;;0.31;100.00;96188.16;648596;216;31914;-78
2022/03/10 07:27:51;;;;;;;2.65;1.60;;;-0.40;1.40;;;0.53;100.00;96184.30;647408;216;31642;-76
2022/03/10 07:30:34;;;;;;;2.37;2.20;;;-0.20;1.40;;;0.82;100.00;96182.70;645803;216;31773;-74
2022/03/10 07:35:51;;;;;;;2.80;2.25;;;0.40;1.40;;;1.28;97.59;96186.70;631766;217;31769;-75
2022/03/10 07:38:33;;;;;;;4.40;2.97;;;0.60;1.40;;;1.50;95.43;96187.48;646797;216;31632;-75
2022/03/10 07:41:21;;;;;;;3.33;2.25;;;0.80;1.40;;;1.84;92.10;96186.16;621080;226;42651;-77
2022/03/10 07:44:03;;;;;;;2.10;1.60;;;1.30;1.40;;;2.06;90.57;96193.24;620519;222;31932;-77
2022/03/10 07:46:44;;;;;;;2.10;1.50;;;1.40;1.40;;;2.35;87.72;96187.70;647774;216;31559;-77
2022/03/10 07:49:26;;;;;;;2.40;2.00;;;1.90;1.40;;;2.60;85.83;96188.91;648426;212;31590;-77
2022/03/10 07:52:11;;;;;;;3.20;2.60;;;2.20;1.40;;;2.76;85.33;96185.03;643603;216;31627;-77
2022/03/10 07:54:54;;;;;;;3.40;3.10;;;2.30;1.40;;;2.96;84.92;96184.98;650522;212;42145;-76
2022/03/10 07:57:36;;;;;;;3.90;2.45;;;2.30;1.40;;;3.20;83.43;96186.67;649743;216;31553;-77
2022/03/10 08:00:18;;;;;;;2.37;2.10;;;2.60;1.40;;;3.40;81.45;96190.11;619128;222;31944;-77
2022/03/10 08:03:03;;;;;;;1.67;1.50;;;2.80;1.40;;;3.51;79.37;96185.38;648725;216;31563;-76
2022/03/10 08:05:46;;;;;;;3.40;2.50;;;3.20;1.40;;;3.71;78.31;96182.47;619982;222;31936;-76
2022/03/10 08:08:32;;;;;;;2.95;2.00;;;3.30;1.40;;;4.01;79.58;96180.27;634832;212;31740;-75
2022/03/10 08:11:23;;;;;;;2.30;1.67;;;3.40;1.40;;;4.11;78.44;96181.89;651122;212;31547;-76
2022/03/10 08:14:05;;;;;;;2.95;2.40;;;3.30;1.40;;;4.22;75.86;96176.80;648256;212;31657;-77
2022/03/10 08:16:50;;;;;;;3.72;1.98;;;3.60;1.40;;;4.32;74.05;96173.70;647526;212;42583;-76
2022/03/10 08:19:31;;;;;;;2.37;1.95;;;3.90;1.40;;;4.51;73.94;96170.02;647843;216;31752;-76
2022/03/10 08:22:13;;;;;;;2.50;1.60;;;4.00;1.40;;;4.91;72.76;96177.38;645553;216;31545;-77
2022/03/10 08:24:55;;;;;;;2.50;1.80;;;4.50;1.40;;;4.97;72.20;96177.19;619773;226;31949;-76
2022/03/10 08:27:40;;;;;;;2.22;1.70;;;4.50;1.40;;;5.27;72.05;96171.61;647929;216;31595;-76
2022/03/10 08:30:22;;;;;;;2.53;2.17;;;4.80;1.40;;;5.61;71.37;96171.84;648097;216;31752;-77
2022/03/10 08:35:52;;;;;;;2.47;2.28;;;5.60;1.40;;;6.26;67.60;96164.87;647554;216;31573;-77
2022/03/10 08:38:35;;;;;;;2.00;1.70;;;5.90;1.40;;;6.62;63.48;96158.87;646153;216;31733;-75
2022/03/10 08:41:16;;;;;;;2.17;1.95;;;6.20;1.40;;;6.69;63.00;96152.72;647310;212;31743;-76
2022/03/10 08:43:59;;;;;;;2.85;1.83;;;6.30;1.40;;;7.04;60.82;96155.66;647288;216;42624;-76
2022/03/10 08:46:41;;;;;;;3.60;2.15;;;6.70;1.40;;;7.24;58.74;96155.70;646795;216;42180;-76
2022/03/10 08:49:22;;;;;;;3.83;2.15;;;6.90;1.40;;;7.39;58.66;96154.25;616155;224;42500;-76
2022/03/10 08:52:05;;;;;;;3.20;2.00;;;7.00;1.40;;;7.69;58.89;96153.91;647181;212;31556;-77
2022/03/10 08:54:48;;;;;;;1.92;1.73;;;7.20;1.40;;;7.74;57.13;96150.41;646848;212;42243;-76
2022/03/10 08:57:36;;;;;;;3.50;2.00;;;7.40;1.40;;;7.90;56.52;96143.53;647296;216;32238;-77
2022/03/10 09:00:19;;;;;;;3.60;1.90;;;7.60;1.40;;;8.26;57.29;96142.52;616468;224;31942;-76
2022/03/10 09:03:01;;;;;;;2.37;1.90;;;7.90;1.40;;;8.76;55.54;96136.72;646263;216;31574;-75
2022/03/10 09:05:44;;;;;;;4.17;2.37;;;8.50;1.40;;;9.29;54.27;96127.23;647487;216;32110;-76
2022/03/10 09:08:24;;;;;;;4.10;2.03;;;9.00;1.40;;;9.56;51.63;96130.03;648152;216;42793;-75
2022/03/10 09:11:06;;;;;;;4.95;2.53;;;9.40;1.40;;;10.77;47.46;96126.89;647559;216;31598;-76
2022/03/10 09:13:48;;;;;;;3.60;2.60;;;12.30;1.40;;;13.18;47.02;96116.20;647281;216;42202;-76
2022/03/10 09:16:30;;;;;;;2.35;2.00;;;15.20;1.40;;;14.13;41.38;96116.30;647165;216;31544;-77
2022/03/10 09:19:12;;;;;;;3.20;2.30;;;14.90;99.90;;;15.25;39.33;96112.74;619274;226;31962;-77
2022/03/10 09:24:31;;;;;;;2.87;2.50;;;14.60;99.90;;;14.14;38.95;96113.61;620503;222;32034;-76
2022/03/10 09:27:13;;;;;;;3.28;2.62;;;13.80;99.90;;;13.23;39.15;96112.26;647712;212;31568;-76
2022/03/10 09:30:03;;;;;;;2.70;2.40;;;14.60;1.40;;;14.87;37.53;96104.51;647190;216;32131;-75
2022/03/10 09:32:51;;;;;;;2.70;2.40;;;14.50;99.90;;;15.39;38.52;96103.64;648213;216;31716;-76
2022/03/10 09:35:57;;;;;;;4.43;2.70;;;16.60;1.40;;;19.05;37.21;96096.02;647308;216;31676;-75
2022/03/10 09:38:45;;;;;;;4.20;3.00;;;19.00;1.40;;;18.07;35.66;96100.39;647051;216;31564;-76
2022/03/10 09:41:28;;;;;;;4.35;2.40;;;17.30;1.40;;;17.09;32.65;96106.52;647831;216;42172;-77
2022/03/10 09:44:13;;;;;;;3.92;2.30;;;15.60;1.40;;;18.92;37.11;96098.63;647894;216;32220;-76
2022/03/10 09:47:02;;;;;;;4.15;3.10;;;18.00;99.90;;;16.77;34.87;96105.12;646812;212;32140;-75
2022/03/10 09:49:40;;;;;;;3.90;2.60;;;16.20;1.40;;;21.35;32.69;96097.21;647106;216;31572;-75
2022/03/10 09:52:20;;;;;;;3.85;2.60;;;19.30;99.90;;;24.02;30.97;96095.80;618910;222;32114;-76
2022/03/10 09:55:05;;;;;;;3.03;2.42;;;20.80;99.90;;;17.69;30.38;96105.41;647075;215;31605;-75
2022/03/10 09:57:53;;;;;;;3.50;2.55;;;15.40;99.90;;;18.82;30.54;96106.36;619114;222;31905;-75
2022/03/10 10:00:40;;;;;;;4.32;2.62;;;17.40;99.90;;;18.39;31.64;96104.03;620460;226;32370;-76
2022/03/10 10:03:22;;;;;;;2.83;2.10;;;16.90;1.40;;;18.33;30.81;96105.23;619853;222;31884;-76
2022/03/10 10:06:04;;;;;;;4.20;2.83;;;17.00;1.40;;;20.90;27.90;96101.88;618007;222;31891;-76
2022/03/10 10:08:55;;;;;;;5.47;2.80;;;18.70;1.40;;;19.35;32.21;96103.59;634759;216;31771;-76
2022/03/10 10:11:42;;;;;;;4.50;2.80;;;17.90;99.90;;;23.01;26.17;96098.23;646869;216;31581;-75
2022/03/10 10:14:38;;;;;;;4.85;3.20;;;19.50;1.40;;;22.44;28.11;96101.80;648131;212;31519;-75
2022/03/10 10:17:28;;;;;;;3.10;2.58;;;20.40;1.40;;;22.11;25.46;96103.56;646344;212;31592;-76
2022/03/10 10:20:12;;;;;;;2.92;2.65;;;19.60;1.40;;;21.91;26.90;96105.33;619135;226;32026;-75
2022/03/10 10:22:54;;;;;;;3.55;3.03;;;19.70;1.40;;;21.99;27.91;96104.22;646648;216;31723;-76
2022/03/10 10:28:09;;;;;;;3.00;2.58;;;21.30;99.90;;;27.74;24.62;96083.95;621236;225;32605;-76
2022/03/10 10:30:56;;;;;;;3.60;2.60;;;22.10;8.50;;;26.44;24.40;96084.47;646840;212;31851;-76
2022/03/10 10:35:51;;;;;;;4.87;2.50;;;19.90;99.90;;;23.37;25.63;96086.73;646880;216;31647;-76
2022/03/10 10:38:34;;;;;;;4.05;2.65;;;20.00;99.90;;;27.04;24.35;96074.73;647118;216;31733;-75
2022/03/10 10:41:21;;;;;;;3.17;2.62;;;21.90;99.90;;;24.52;22.86;96081.30;619862;226;42975;-75
2022/03/10 10:44:04;;;;;;;3.07;2.40;;;18.30;99.90;;;18.45;27.71;96083.75;646067;216;31712;-75
2022/03/10 10:46:46;;;;;;;2.80;2.17;;;17.00;99.90;;;22.26;24.71;96073.45;647298;216;31868;-76
2022/03/10 10:49:30;;;;;;;2.92;2.62;;;17.60;99.90;;;19.97;27.51;96079.25;646174;216;31953;-76
2022/03/10 10:52:12;;;;;;;2.70;2.35;;;16.80;99.90;;;20.39;28.06;96073.95;647054;216;32411;-75
2022/03/10 10:55:03;;;;;;;3.50;2.95;;;19.20;99.90;;;20.46;25.81;96072.55;646877;216;31775;-76
2022/03/10 10:57:45;;;;;;;3.35;2.50;;;18.80;99.90;;;22.36;25.18;96062.55;647522;216;31527;-76
2022/03/10 11:00:26;;;;;;;3.87;2.83;;;20.00;99.90;;;22.52;24.50;96056.81;646518;212;31557;-76
2022/03/10 11:03:26;;;;;;;3.20;2.33;;;18.40;99.90;;;21.17;26.99;96061.11;647182;212;31633;-75
2022/03/10 11:06:08;;;;;;;2.75;2.35;;;19.60;99.90;;;19.26;26.00;96061.50;618443;222;32202;-76
2022/03/10 11:08:50;;;;;;;2.42;2.03;;;16.20;99.90;;;21.15;25.70;96053.58;647478;216;31531;-76
2022/03/10 11:11:31;;;;;;;2.30;2.03;;;19.40;1.40;;;18.24;27.75;96056.45;647186;212;42210;-76
2022/03/10 11:14:13;;;;;;;2.15;1.80;;;17.20;99.90;;;24.20;24.18;96037.06;647628;212;31565;-76
2022/03/10 11:16:57;;;;;;;3.37;2.22;;;20.70;1.40;;;25.07;23.33;96038.91;646661;216;41307;-75
2022/03/10 11:19:44;;;;;;;2.62;2.20;;;21.20;1.40;;;23.62;23.65;96034.33;619830;222;32101;-75
2022/03/10 11:22:38;;;;;;;3.35;2.20;;;20.60;99.90;;;24.03;22.68;96036.06;646775;216;31533;-75
2022/03/10 11:25:32;;;;;;;2.55;1.92;;;19.10;99.90;;;18.81;27.07;96047.41;646822;216;32117;-75
2022/03/10 11:28:15;;;;;;;2.62;2.15;;;16.10;99.90;;;17.72;27.54;96045.46;644375;214;31620;-75
2022/03/10 11:31:01;;;;;;;3.35;2.00;;;15.80;1.40;;;18.57;27.75;96039.26;645745;216;31559;-75
2022/03/10 11:35:54;;;;;;;3.78;2.55;;;19.20;99.90;;;19.06;26.60;96029.27;646827;216;31583;-76
2022/03/10 11:38:49;;;;;;;3.90;2.20;;;17.40;99.90;;;22.71;24.46;96019.95;646964;212;42202;-76
2022/03/10 11:41:42;;;;;;;2.75;2.30;;;20.90;99.90;;;26.47;22.26;96005.48;618666;222;31885;-75
2022/03/10 11:44:24;;;;;;;3.20;2.08;;;22.80;99.90;;;22.19;22.87;96011.36;646169;212;31799;-76
2022/03/10 11:47:10;;;;;;;2.55;2.17;;;20.30;1.00;;;25.81;22.66;96007.78;646869;212;31581;-75
2022/03/10 11:49:52;;;;;;;3.40;2.50;;;22.00;99.90;;;27.25;21.02;95998.80;646822;212;31590;-76
2022/03/10 11:52:40;;;;;;;3.22;2.05;;;22.30;99.90;;;21.38;22.75;96007.36;647154;216;31555;-75
2022/03/10 11:55:42;;;;;;;2.47;2.28;;;18.70;99.90;;;20.75;23.75;96016.14;645418;212;32187;-75
2022/03/10 11:58:31;;;;;;;3.65;2.87;;;17.70;78.20;;;20.05;25.65;96007.63;648074;216;31600;-75
2022/03/10 12:01:13;;;;;;;4.00;2.60;;;18.90;99.90;;;24.41;22.97;95990.86;647839;212;31862;-75
2022/03/10 12:03:54;;;;;;;3.08;2.47;;;21.50;99.90;;;23.91;20.70;95989.38;643731;215;31788;-75
2022/03/10 12:06:37;;;;;;;3.47;2.62;;;20.30;1.40;;;26.82;20.38;95986.07;642730;216;31743;-75
2022/03/10 12:09:25;;;;;;;2.83;2.22;;;22.20;1.40;;;28.27;19.23;95979.63;646491;216;31623;-75
2022/03/10 12:12:15;;;;;;;3.58;2.17;;;22.40;1.40;;;25.18;20.33;95989.59;618841;222;32590;-76
2022/03/10 12:14:57;;;;;;;2.97;2.42;;;21.50;1.40;;;23.60;21.72;95986.30;647728;216;31532;-75
2022/03/10 12:17:54;;;;;;;4.85;3.03;;;20.20;1.40;;;28.50;19.93;95972.36;648366;212;31622;-76
2022/03/10 12:20:42;;;;;;;2.80;2.50;;;23.40;99.90;;;25.66;20.71;95981.64;631602;221;31642;-75
2022/03/10 12:23:26;;;;;;;3.40;2.83;;;19.60;1.40;;;28.01;19.60;95966.92;647523;216;32408;-73
2022/03/10 12:26:15;;;;;;;3.50;2.72;;;22.10;99.90;;;25.44;19.39;95971.56;623159;225;31920;-76
2022/03/10 12:29:00;;;;;;;6.10;2.35;;;19.90;99.90;;;25.36;20.97;95970.91;620262;222;32032;-76
2022/03/10 12:31:42;;;;;;;2.80;2.50;;;21.10;99.90;;;27.99;19.56;95948.84;646932;212;31619;-75
2022/03/10 12:35:51;;;;;;;3.10;2.67;;;21.70;99.90;;;26.73;18.92;95959.44;647565;216;31635;-76
2022/03/10 12:38:41;;;;;;;3.97;2.28;;;20.80;99.90;;;26.86;20.27;95954.35;646748;216;31563;-75
2022/03/10 12:41:30;;;;;;;3.13;2.27;;;21.80;99.90;;;23.80;19.33;95955.48;649198;216;31695;-77
2022/03/10 12:44:11;;;;;;;2.60;2.10;;;18.10;99.90;;;24.86;20.92;95949.36;647901;212;31644;-76
2022/03/10 12:46:53;;;;;;;3.50;2.30;;;20.90;99.90;;;27.47;19.37;95940.86;647239;216;31539;-77
2022/03/10 12:49:37;;;;;;;3.90;2.20;;;22.80;99.90;;;29.10;17.75;95937.78;647126;216;31607;-76
2022/03/10 12:52:27;;;;;;;6.75;2.30;;;22.60;99.90;;;23.94;20.41;95939.36;647486;216;31665;-75
2022/03/10 12:55:02;;;;;;;2.97;1.83;;;19.50;99.90;;;20.91;21.87;95949.11;618226;224;32069;-75
2022/03/10 12:57:44;;;;;;;2.95;2.00;;;18.40;1.40;;;21.10;22.08;95942.26;647436;216;31557;-74